sensor_id;sensor_type;location;lat;lon;timestamp;pressure;altitude;pressure_sealevel;temperature;humidity
11001;BME280;5553;48.506;8.870;2023-08-12T00:01:05;97265.03;;;17.48;100.00
11001;BME280;5553;48.506;8.870;2023-08-12T00:03:34;97256.41;;;17.46;100.00
11001;BME280;5553;48.506;8.870;2023-08-12T00:06:05;97263.81;;;17.44;100.00
11001;BME280;5553;48.506;8.870;2023-08-12T00:08:33;97266.31;;;17.39;100.00
11001;BME280;5553;48.506;8.870;2023-08-12T00:11:01;97282.41;;;17.26;100.00
11001;BME280;5553;48.506;8.870;2023-08-12T00:13:30;97282.16;;;17.34;100.00
11001;BME280;5553;48.506;8.870;2023-08-12T00:15:58;97264.34;;;17.28;100.00
11001;BME280;5553;48.506;8.870;2023-08-12T00:18:27;97263.66;;;17.08;100.00
11001;BME280;5553;48.506;8.870;2023-08-12T00:20:55;97264.84;;;17.12;100.00
11001;BME280;5553;48.506;8.870;2023-08-12T00:23:26;97262.63;;;17.09;100.00
11001;BME280;5553;48.506;8.870;2023-08-12T00:25:57;97254.69;;;16.95;100.00
11001;BME280;5553;48.506;8.870;2023-08-12T00:30:53;97266.66;;;16.86;100.00
11001;BME280;5553;48.506;8.870;2023-08-12T00:33:22;97264.63;;;16.75;100.00
11001;BME280;5553;48.506;8.870;2023-08-12T00:35:51;97267.09;;;16.70;100.00
11001;BME280;5553;48.506;8.870;2023-08-12T00:38:19;97265.47;;;16.75;100.00
11001;BME280;5553;48.506;8.870;2023-08-12T00:40:50;97264.63;;;16.68;100.00
11001;BME280;5553;48.506;8.870;2023-08-12T00:43:18;97263.22;;;16.66;100.00
11001;BME280;5553;48.506;8.870;2023-08-12T00:45:47;97273.25;;;16.70;100.00
11001;BME280;5553;48.506;8.870;2023-08-12T00:48:17;97277.75;;;16.76;100.00
11001;BME280;5553;48.506;8.870;2023-08-12T00:50:45;97268.69;;;16.84;100.00
11001;BME280;5553;48.506;8.870;2023-08-12T00:53:14;97269.09;;;16.88;100.00
11001;BME280;5553;48.506;8.870;2023-08-12T00:55:44;97266.78;;;16.98;100.00
11001;BME280;5553;48.506;8.870;2023-08-12T00:58:15;97261.06;;;16.94;100.00
11001;BME280;5553;48.506;8.870;2023-08-12T01:00:44;97256.38;;;16.90;100.00
11001;BME280;5553;48.506;8.870;2023-08-12T01:03:12;97264.56;;;16.88;100.00
11001;BME280;5553;48.506;8.870;2023-08-12T01:05:41;97258.81;;;16.91;100.00
11001;BME280;5553;48.506;8.870;2023-08-12T01:08:09;97264.22;;;16.71;100.00
11001;BME280;5553;48.506;8.870;2023-08-12T01:10:40;97264.63;;;16.75;100.00
11001;BME280;5553;48.506;8.870;2023-08-12T01:13:21;97252.31;;;16.80;100.00
11001;BME280;5553;48.506;8.870;2023-08-12T01:15:56;97243.22;;;16.95;100.00
11001;BME280;5553;48.506;8.870;2023-08-12T01:18:27;97261.41;;;17.04;100.00
11001;BME280;5553;48.506;8.870;2023-08-12T01:20:56;97241.16;;;16.97;100.00
11001;BME280;5553;48.506;8.870;2023-08-12T01:23:27;97226.88;;;16.85;100.00
11001;BME280;5553;48.506;8.870;2023-08-12T01:25:55;97247.41;;;16.77;100.00
11001;BME280;5553;48.506;8.870;2023-08-12T01:28:23;97238.59;;;16.77;100.00
11001;BME280;5553;48.506;8.870;2023-08-12T01:30:57;97236.75;;;16.71;100.00
11001;BME280;5553;48.506;8.870;2023-08-12T01:33:30;97239.66;;;16.69;100.00
11001;BME280;5553;48.506;8.870;2023-08-12T01:36:08;97241.50;;;16.69;100.00
11001;BME280;5553;48.506;8.870;2023-08-12T01:38:40;97238.00;;;16.75;100.00
11001;BME280;5553;48.506;8.870;2023-08-12T01:41:11;97261.16;;;16.74;100.00
11001;BME280;5553;48.506;8.870;2023-08-12T01:43:41;97292.50;;;16.72;100.00
11001;BME280;5553;48.506;8.870;2023-08-12T01:46:10;97260.72;;;16.71;100.00
11001;BME280;5553;48.506;8.870;2023-08-12T01:48:38;97251.72;;;16.72;100.00
11001;BME280;5553;48.506;8.870;2023-08-12T01:51:06;97244.56;;;16.72;100.00
11001;BME280;5553;48.506;8.870;2023-08-12T01:53:35;97251.72;;;16.72;100.00
11001;BME280;5553;48.506;8.870;2023-08-12T01:56:06;97253.97;;;16.68;100.00
11001;BME280;5553;48.506;8.870;2023-08-12T01:58:35;97254.59;;;16.70;100.00
11001;BME280;5553;48.506;8.870;2023-08-12T02:01:03;97250.50;;;16.74;100.00
11001;BME280;5553;48.506;8.870;2023-08-12T02:03:31;97250.88;;;16.78;100.00
11001;BME280;5553;48.506;8.870;2023-08-12T02:05:59;97253.13;;;16.81;100.00
11001;BME280;5553;48.506;8.870;2023-08-12T02:08:27;97243.09;;;16.83;100.00
11001;BME280;5553;48.506;8.870;2023-08-12T02:10:56;97236.94;;;16.83;100.00
11001;BME280;5553;48.506;8.870;2023-08-12T02:13:27;97254.34;;;16.85;100.00
11001;BME280;5553;48.506;8.870;2023-08-12T02:15:55;97246.56;;;16.84;100.00
11001;BME280;5553;48.506;8.870;2023-08-12T02:18:23;97239.19;;;16.86;100.00
11001;BME280;5553;48.506;8.870;2023-08-12T02:20:52;97242.88;;;16.85;100.00
11001;BME280;5553;48.506;8.870;2023-08-12T02:23:20;97248.19;;;16.85;100.00
11001;BME280;5553;48.506;8.870;2023-08-12T02:25:48;97280.41;;;16.83;100.00
11001;BME280;5553;48.506;8.870;2023-08-12T02:28:16;97256.03;;;16.73;100.00
11001;BME280;5553;48.506;8.870;2023-08-12T02:30:47;97285.94;;;16.75;100.00
11001;BME280;5553;48.506;8.870;2023-08-12T02:33:16;97286.94;;;16.74;100.00
11001;BME280;5553;48.506;8.870;2023-08-12T02:35:44;97267.09;;;16.70;100.00
11001;BME280;5553;48.506;8.870;2023-08-12T02:38:12;97281.47;;;16.69;100.00
11001;BME280;5553;48.506;8.870;2023-08-12T02:40:40;97305.00;;;16.72;100.00
11001;BME280;5553;48.506;8.870;2023-08-12T02:43:09;97295.38;;;16.71;100.00
11001;BME280;5553;48.506;8.870;2023-08-12T02:45:37;97304.16;;;16.71;100.00
11001;BME280;5553;48.506;8.870;2023-08-12T02:48:09;97281.22;;;16.77;100.00
11001;BME280;5553;48.506;8.870;2023-08-12T02:50:38;97268.72;;;16.77;100.00
11001;BME280;5553;48.506;8.870;2023-08-12T02:53:06;97266.88;;;16.78;100.00
11001;BME280;5553;48.506;8.870;2023-08-12T02:55:34;97265.00;;;16.85;100.00
11001;BME280;5553;48.506;8.870;2023-08-12T02:58:03;97241.81;;;16.92;100.00
11001;BME280;5553;48.506;8.870;2023-08-12T03:00:31;97249.41;;;16.89;100.00
11001;BME280;5553;48.506;8.870;2023-08-12T03:03:00;97242.03;;;16.84;100.00
11001;BME280;5553;48.506;8.870;2023-08-12T03:05:32;97242.47;;;16.81;100.00
11001;BME280;5553;48.506;8.870;2023-08-12T03:08:00;97245.75;;;16.83;100.00
11001;BME280;5553;48.506;8.870;2023-08-12T03:10:29;97242.66;;;16.86;100.00
11001;BME280;5553;48.506;8.870;2023-08-12T03:12:57;97244.94;;;16.83;100.00
11001;BME280;5553;48.506;8.870;2023-08-12T03:15:25;97231.41;;;16.84;100.00
11001;BME280;5553;48.506;8.870;2023-08-12T03:17:53;97242.03;;;16.84;100.00
11001;BME280;5553;48.506;8.870;2023-08-12T03:20:22;97225.88;;;16.86;100.00
11001;BME280;5553;48.506;8.870;2023-08-12T03:22:53;97233.63;;;16.87;100.00
11001;BME280;5553;48.506;8.870;2023-08-12T03:25:21;97235.47;;;16.87;100.00
11001;BME280;5553;48.506;8.870;2023-08-12T03:27:49;97221.13;;;16.88;100.00
11001;BME280;5553;48.506;8.870;2023-08-12T03:30:18;97231.78;;;16.88;100.00
11001;BME280;5553;48.506;8.870;2023-08-12T03:32:46;97238.97;;;16.87;100.00
11001;BME280;5553;48.506;8.870;2023-08-12T03:35:14;97227.88;;;16.90;100.00
11001;BME280;5553;48.506;8.870;2023-08-12T03:37:43;97256.16;;;16.91;100.00
11001;BME280;5553;48.506;8.870;2023-08-12T03:40:14;97213.34;;;16.86;100.00
11001;BME280;5553;48.506;8.870;2023-08-12T03:42:42;97210.84;;;16.91;100.00
11001;BME280;5553;48.506;8.870;2023-08-12T03:45:10;97220.94;;;16.89;100.00
11001;BME280;5553;48.506;8.870;2023-08-12T03:47:38;97212.50;;;16.92;100.00
11001;BME280;5553;48.506;8.870;2023-08-12T03:50:07;97209.00;;;16.92;100.00
11001;BME280;5553;48.506;8.870;2023-08-12T03:52:35;97211.66;;;16.92;100.00
11001;BME280;5553;48.506;8.870;2023-08-12T03:55:05;97229.50;;;16.91;100.00
11001;BME280;5553;48.506;8.870;2023-08-12T03:57:36;97204.50;;;16.92;100.00
11001;BME280;5553;48.506;8.870;2023-08-12T04:00:02;97211.66;;;16.92;100.00
11001;BME280;5553;48.506;8.870;2023-08-12T04:02:32;97201.00;;;16.92;100.00
11001;BME280;5553;48.506;8.870;2023-08-12T04:05:01;97221.91;;;16.95;100.00
11001;BME280;5553;48.506;8.870;2023-08-12T04:07:30;97225.19;;;16.97;100.00
11001;BME280;5553;48.506;8.870;2023-08-12T04:09:59;97242.78;;;16.98;100.00
11001;BME280;5553;48.506;8.870;2023-08-12T04:12:27;97229.84;;;17.01;100.00
11001;BME280;5553;48.506;8.870;2023-08-12T04:14:58;97211.16;;;17.08;100.00
11001;BME280;5553;48.506;8.870;2023-08-12T04:17:29;97228.56;;;17.11;100.00
11001;BME280;5553;48.506;8.870;2023-08-12T04:19:57;97220.56;;;17.11;100.00
11001;BME280;5553;48.506;8.870;2023-08-12T04:22:26;97218.09;;;17.09;100.00
11001;BME280;5553;48.506;8.870;2023-08-12T04:24:54;97213.63;;;17.10;100.00
11001;BME280;5553;48.506;8.870;2023-08-12T04:27:22;97213.16;;;17.13;100.00
11001;BME280;5553;48.506;8.870;2023-08-12T04:29:51;97218.06;;;17.16;100.00
11001;BME280;5553;48.506;8.870;2023-08-12T04:32:22;97244.53;;;17.17;100.00
11001;BME280;5553;48.506;8.870;2023-08-12T04:34:50;97213.50;;;17.23;100.00
11001;BME280;5553;48.506;8.870;2023-08-12T04:37:18;97190.72;;;17.27;100.00
11001;BME280;5553;48.506;8.870;2023-08-12T04:39:47;97203.28;;;17.20;100.00
11001;BME280;5553;48.506;8.870;2023-08-12T04:42:15;97197.44;;;17.04;100.00
11001;BME280;5553;48.506;8.870;2023-08-12T04:44:44;97229.22;;;17.06;100.00
11001;BME280;5553;48.506;8.870;2023-08-12T04:47:12;97227.19;;;17.01;100.00
11001;BME280;5553;48.506;8.870;2023-08-12T04:49:43;97224.72;;;17.07;100.00
11001;BME280;5553;48.506;8.870;2023-08-12T04:52:11;97232.88;;;17.12;100.00
11001;BME280;5553;48.506;8.870;2023-08-12T10:24:42;97171.25;;;28.21;72.10
11001;BME280;5553;48.506;8.870;2023-08-12T12:36:13;97137.41;;;21.85;100.00
11001;BME280;5553;48.506;8.870;2023-08-12T12:38:46;97137.38;;;21.46;100.00
11001;BME280;5553;48.506;8.870;2023-08-12T12:41:14;97149.31;;;21.22;100.00
11001;BME280;5553;48.506;8.870;2023-08-12T12:43:48;97154.31;;;20.85;100.00
11001;BME280;5553;48.506;8.870;2023-08-12T12:46:32;97162.59;;;20.66;100.00
11001;BME280;5553;48.506;8.870;2023-08-12T12:49:31;97159.13;;;20.54;100.00
11001;BME280;5553;48.506;8.870;2023-08-12T12:55:47;97170.09;;;20.41;100.00
11001;BME280;5553;48.506;8.870;2023-08-12T13:02:04;97166.38;;;20.42;100.00
11001;BME280;5553;48.506;8.870;2023-08-12T13:04:39;97161.31;;;20.57;100.00
11001;BME280;5553;48.506;8.870;2023-08-12T13:07:27;97186.78;;;20.71;100.00
11001;BME280;5553;48.506;8.870;2023-08-12T13:09:59;97171.88;;;20.75;100.00
11001;BME280;5553;48.506;8.870;2023-08-12T13:12:27;97155.88;;;20.80;100.00
11001;BME280;5553;48.506;8.870;2023-08-12T13:15:02;97140.72;;;21.03;100.00
11001;BME280;5553;48.506;8.870;2023-08-12T13:17:34;97160.63;;;21.74;100.00
11001;BME280;5553;48.506;8.870;2023-08-12T13:20:11;97161.13;;;21.71;100.00
11001;BME280;5553;48.506;8.870;2023-08-12T13:22:50;97167.72;;;22.19;100.00
11001;BME280;5553;48.506;8.870;2023-08-12T13:25:23;97142.00;;;22.29;100.00
11001;BME280;5553;48.506;8.870;2023-08-12T13:27:52;97133.63;;;22.47;100.00
11001;BME280;5553;48.506;8.870;2023-08-12T13:32:49;97163.59;;;23.42;100.00
11001;BME280;5553;48.506;8.870;2023-08-12T13:35:18;97182.22;;;25.17;100.00
11001;BME280;5553;48.506;8.870;2023-08-12T13:37:49;97139.31;;;24.27;100.00
11001;BME280;5553;48.506;8.870;2023-08-12T13:40:25;97156.75;;;24.72;100.00
11001;BME280;5553;48.506;8.870;2023-08-12T13:43:03;97161.34;;;24.92;100.00
11001;BME280;5553;48.506;8.870;2023-08-12T13:45:33;97131.53;;;24.35;100.00
11001;BME280;5553;48.506;8.870;2023-08-12T13:48:02;97144.28;;;24.50;100.00
11001;BME280;5553;48.506;8.870;2023-08-12T13:50:33;97135.13;;;24.51;100.00
11001;BME280;5553;48.506;8.870;2023-08-12T13:53:04;97130.59;;;24.72;100.00
11001;BME280;5553;48.506;8.870;2023-08-12T13:55:35;97132.19;;;24.73;100.00
11001;BME280;5553;48.506;8.870;2023-08-12T13:58:07;97114.13;;;24.58;100.00
11001;BME280;5553;48.506;8.870;2023-08-12T14:00:36;97107.34;;;24.61;100.00
11001;BME280;5553;48.506;8.870;2023-08-12T14:03:07;97128.44;;;25.92;100.00
11001;BME280;5553;48.506;8.870;2023-08-12T14:05:35;97119.50;;;25.96;100.00
11001;BME280;5553;48.506;8.870;2023-08-12T14:08:06;97089.03;;;24.78;100.00
11001;BME280;5553;48.506;8.870;2023-08-12T14:10:35;97092.56;;;24.99;100.00
11001;BME280;5553;48.506;8.870;2023-08-12T14:13:06;97102.25;;;25.72;100.00
11001;BME280;5553;48.506;8.870;2023-08-12T14:15:34;97078.88;;;26.12;100.00
11001;BME280;5553;48.506;8.870;2023-08-12T14:18:03;97078.41;;;25.99;100.00
11001;BME280;5553;48.506;8.870;2023-08-12T14:20:32;97099.69;;;26.66;100.00
11001;BME280;5553;48.506;8.870;2023-08-12T14:23:00;97077.09;;;26.41;100.00
11001;BME280;5553;48.506;8.870;2023-08-12T14:25:45;97079.28;;;26.39;100.00
11001;BME280;5553;48.506;8.870;2023-08-12T14:28:22;97089.84;;;26.85;100.00
11001;BME280;5553;48.506;8.870;2023-08-12T14:31:04;97080.59;;;26.52;100.00
11001;BME280;5553;48.506;8.870;2023-08-12T14:33:53;97091.41;;;26.91;98.53
11001;BME280;5553;48.506;8.870;2023-08-12T14:37:01;97094.47;;;27.72;93.95
11001;BME280;5553;48.506;8.870;2023-08-12T16:00:07;97010.53;;;24.90;100.00
11001;BME280;5553;48.506;8.870;2023-08-12T16:03:58;97029.69;;;24.94;100.00
11001;BME280;5553;48.506;8.870;2023-08-12T16:06:18;97043.47;;;24.82;100.00
11001;BME280;5553;48.506;8.870;2023-08-12T16:09:00;97051.00;;;24.75;100.00
11001;BME280;5553;48.506;8.870;2023-08-12T23:05:17;97914.88;;;17.56;100.00
11001;BME280;5553;48.506;8.870;2023-08-12T23:07:46;97913.44;;;17.53;100.00
11001;BME280;5553;48.506;8.870;2023-08-12T23:10:14;97909.34;;;17.51;100.00
11001;BME280;5553;48.506;8.870;2023-08-12T23:12:43;97913.00;;;17.50;100.00
11001;BME280;5553;48.506;8.870;2023-08-12T23:15:11;97917.53;;;17.49;100.00
11001;BME280;5553;48.506;8.870;2023-08-12T23:17:40;97904.81;;;17.45;100.00
11001;BME280;5553;48.506;8.870;2023-08-12T23:20:09;97917.31;;;17.44;100.00
11001;BME280;5553;48.506;8.870;2023-08-12T23:22:40;97936.03;;;17.51;100.00
11001;BME280;5553;48.506;8.870;2023-08-12T23:25:09;97988.56;;;17.50;100.00
11001;BME280;5553;48.506;8.870;2023-08-12T23:27:37;97939.69;;;17.50;100.00
11001;BME280;5553;48.506;8.870;2023-08-12T23:30:06;97627.81;;;17.42;100.00
11001;BME280;5553;48.506;8.870;2023-08-12T23:32:39;97791.13;;;17.37;100.00
11001;BME280;5553;48.506;8.870;2023-08-12T23:35:09;97809.94;;;17.16;100.00
11001;BME280;5553;48.506;8.870;2023-08-12T23:37:40;97821.88;;;17.20;100.00
11001;BME280;5553;48.506;8.870;2023-08-12T23:40:10;97822.88;;;17.19;100.00
11001;BME280;5553;48.506;8.870;2023-08-12T23:42:39;97807.47;;;17.08;100.00
11001;BME280;5553;48.506;8.870;2023-08-12T23:45:09;97816.88;;;16.97;100.00
11001;BME280;5553;48.506;8.870;2023-08-12T23:47:39;97819.31;;;16.92;100.00
11001;BME280;5553;48.506;8.870;2023-08-12T23:50:08;97831.34;;;16.74;100.00
11001;BME280;5553;48.506;8.870;2023-08-12T23:52:39;97843.56;;;16.62;100.00
11001;BME280;5553;48.506;8.870;2023-08-12T23:55:08;97844.56;;;16.61;100.00
11001;BME280;5553;48.506;8.870;2023-08-12T23:57:37;97829.41;;;16.55;100.00
